createdAt,value
2023-04-16T00:01:59.759Z,10.10
2023-04-16T00:06:01.458Z,10.14
2023-04-16T00:10:03.194Z,10.13
2023-04-16T00:14:04.981Z,10.14
2023-04-16T00:18:06.755Z,10.11
2023-04-16T00:22:08.233Z,10.11
2023-04-16T00:26:09.805Z,10.11
2023-04-16T00:30:12.435Z,10.10
2023-04-16T00:34:14.039Z,10.09
2023-04-16T00:38:15.796Z,10.10
2023-04-16T00:42:17.403Z,10.10
2023-04-16T00:46:23.973Z,10.06
2023-04-16T00:50:25.726Z,10.06
2023-04-16T00:54:27.350Z,10.01
2023-04-16T00:58:29.907Z,10.02
2023-04-16T01:02:31.948Z,10.01
2023-04-16T01:06:33.942Z,9.96
2023-04-16T01:10:35.526Z,9.98
2023-04-16T01:14:37.331Z,9.98
2023-04-16T01:18:39.618Z,9.95
2023-04-16T01:22:41.152Z,9.88
2023-04-16T01:26:42.784Z,9.86
2023-04-16T01:30:44.289Z,9.77
2023-04-16T01:34:59.121Z,9.73
2023-04-16T01:39:00.717Z,9.74
2023-04-16T01:43:02.499Z,9.73
2023-04-16T01:47:04.282Z,9.74
2023-04-16T01:51:06.079Z,9.74
2023-04-16T01:55:07.903Z,9.77
2023-04-16T01:59:09.660Z,9.80
2023-04-16T02:03:17.682Z,9.81
2023-04-16T02:07:19.384Z,9.81
2023-04-16T02:11:21.149Z,9.81
2023-04-16T02:15:25.230Z,9.83
2023-04-16T02:19:27.193Z,9.81
2023-04-16T02:23:29.044Z,9.80
2023-04-16T02:27:32.913Z,9.80
2023-04-16T02:31:47.500Z,9.80
2023-04-16T02:35:49.936Z,9.75
2023-04-16T02:39:51.509Z,9.75
2023-04-16T02:43:53.051Z,9.73
2023-04-16T02:47:54.649Z,9.74
2023-04-16T02:51:56.338Z,9.74
2023-04-16T02:55:57.963Z,9.73
2023-04-16T02:59:59.664Z,9.70
2023-04-16T03:04:01.222Z,9.71
2023-04-16T03:08:04.086Z,9.71
2023-04-16T03:12:05.997Z,9.67
2023-04-16T03:16:07.870Z,9.70
2023-04-16T03:20:10.196Z,9.68
2023-04-16T03:24:11.819Z,9.67
2023-04-16T03:28:14.695Z,9.62
2023-04-16T03:32:17.360Z,9.62
2023-04-16T03:36:19.678Z,9.59
2023-04-16T03:40:23.008Z,9.60
2023-04-16T03:44:25.772Z,9.59
2023-04-16T03:48:27.396Z,9.60
2023-04-16T03:52:28.929Z,9.58
2023-04-16T03:56:31.839Z,9.59
2023-04-16T04:00:34.096Z,9.56
2023-04-16T04:04:42.524Z,9.56
2023-04-16T04:08:45.381Z,9.55
2023-04-16T04:12:48.382Z,9.55
2023-04-16T04:16:50.017Z,9.55
2023-04-16T04:20:52.259Z,9.49
2023-04-16T04:24:57.803Z,9.53
2023-04-16T04:29:02.303Z,9.52
2023-04-16T04:33:05.154Z,9.50
2023-04-16T04:37:07.266Z,9.52
2023-04-16T04:41:08.868Z,9.53
2023-04-16T04:45:12.971Z,9.55
2023-04-16T04:49:16.007Z,9.58
2023-04-16T04:53:17.612Z,9.58
2023-04-16T04:57:19.267Z,9.60
2023-04-16T05:01:21.203Z,9.62
2023-04-16T05:05:22.895Z,9.65
2023-04-16T05:09:24.455Z,9.63
2023-04-16T05:13:26.124Z,9.70
2023-04-16T05:17:27.691Z,9.71
2023-04-16T05:21:29.388Z,9.71
2023-04-16T05:25:30.965Z,9.70
2023-04-16T05:29:32.567Z,9.71
2023-04-16T05:33:34.167Z,9.73
2023-04-16T05:37:35.685Z,9.74
2023-04-16T05:41:37.215Z,9.77
2023-04-16T05:45:41.540Z,9.78
2023-04-16T05:49:43.166Z,9.80
2023-04-16T05:53:44.803Z,9.85
2023-04-16T05:57:46.452Z,9.88
2023-04-16T06:01:48.061Z,9.89
2023-04-16T06:05:49.793Z,9.92
2023-04-16T06:09:51.407Z,10.01
2023-04-16T06:13:52.935Z,10.09
2023-04-16T06:17:54.500Z,10.10
2023-04-16T06:21:57.005Z,10.11
2023-04-16T06:25:58.635Z,10.14
2023-04-16T06:30:00.185Z,10.14
2023-04-16T06:34:01.692Z,10.16
2023-04-16T06:38:03.260Z,10.14
2023-04-16T06:42:04.926Z,10.13
2023-04-16T06:46:06.482Z,10.11
2023-04-16T06:50:08.278Z,10.10
2023-04-16T06:54:09.847Z,10.10
2023-04-16T06:58:11.612Z,10.09
2023-04-16T07:02:13.348Z,10.06
2023-04-16T07:06:15.993Z,10.01
2023-04-16T07:10:17.617Z,10.02
2023-04-16T07:14:19.171Z,10.02
2023-04-16T07:18:21.392Z,10.06
2023-04-16T07:22:22.984Z,10.06
2023-04-16T07:26:24.526Z,10.09
2023-04-16T07:30:32.801Z,10.10
2023-04-16T07:34:34.405Z,10.16
2023-04-16T07:38:37.000Z,10.25
2023-04-16T07:42:38.555Z,10.29
2023-04-16T07:46:47.000Z,10.35
2023-04-16T07:50:50.125Z,10.39
2023-04-16T07:54:52.009Z,10.54
2023-04-16T07:58:53.597Z,10.58
2023-04-16T08:02:55.486Z,10.69
2023-04-16T08:06:57.109Z,10.72
2023-04-16T08:10:59.078Z,10.70
2023-04-16T08:15:00.691Z,10.73
2023-04-16T08:19:02.312Z,10.81
2023-04-16T08:23:03.887Z,10.87
2023-04-16T08:27:17.716Z,10.98
2023-04-16T08:31:21.215Z,11.05
2023-04-16T08:35:23.073Z,11.08
2023-04-16T08:39:24.717Z,11.01
2023-04-16T08:43:26.718Z,10.99
2023-04-16T08:47:30.034Z,11.09
2023-04-16T08:51:35.119Z,11.16
2023-04-16T08:55:39.428Z,11.17
2023-04-16T08:59:46.280Z,11.12
2023-04-16T09:03:48.793Z,11.01
2023-04-16T09:07:52.169Z,10.95
2023-04-16T09:11:54.086Z,10.94
2023-04-16T09:15:57.255Z,10.88
2023-04-16T09:19:59.154Z,10.86
2023-04-16T09:24:01.830Z,10.80
2023-04-16T09:28:03.438Z,10.70
2023-04-16T09:32:09.990Z,10.58
2023-04-16T09:36:12.001Z,10.51
2023-04-16T09:40:13.628Z,10.39
2023-04-16T09:44:15.315Z,10.49
2023-04-16T09:48:28.906Z,10.51
2023-04-16T09:52:30.536Z,10.54
2023-04-16T09:56:32.218Z,10.49
2023-04-16T10:00:33.775Z,10.42
2023-04-16T10:04:51.819Z,10.34
2023-04-16T10:08:57.730Z,10.26
2023-04-16T10:12:59.705Z,10.25
2023-04-16T10:17:02.376Z,10.26
2023-04-16T10:21:04.631Z,10.32
2023-04-16T10:25:07.595Z,10.35
2023-04-16T10:29:09.366Z,10.36
2023-04-16T10:33:12.128Z,10.36
2023-04-16T10:37:15.692Z,10.35
2023-04-16T10:41:17.404Z,10.35
2023-04-16T10:45:19.008Z,10.38
2023-04-16T10:49:24.396Z,10.39
2023-04-16T10:53:27.776Z,10.51
2023-04-16T10:57:30.571Z,10.55
2023-04-16T11:01:42.334Z,10.62
2023-04-16T11:05:47.041Z,10.65
2023-04-16T11:09:59.868Z,10.68
2023-04-16T11:14:04.563Z,10.68
2023-04-16T11:18:07.135Z,10.68
2023-04-16T11:22:08.996Z,10.70
2023-04-16T11:26:20.761Z,10.73
2023-04-16T11:30:31.236Z,10.75
2023-04-16T11:34:33.126Z,10.80
2023-04-16T11:38:40.936Z,10.83
2023-04-16T11:42:42.801Z,10.87
2023-04-16T11:46:44.497Z,10.87
2023-04-16T11:50:56.259Z,10.91
2023-04-16T11:54:59.056Z,10.98
2023-04-16T11:59:14.559Z,10.99
2023-04-16T12:03:17.043Z,11.05
2023-04-16T12:07:19.004Z,11.08
2023-04-16T12:11:21.098Z,11.12
2023-04-16T12:15:22.750Z,11.13
2023-04-16T12:19:24.277Z,11.17
2023-04-16T12:23:27.711Z,11.19
2023-04-16T12:27:52.316Z,11.21
2023-04-16T12:31:54.839Z,11.24
2023-04-16T12:35:56.900Z,11.21
2023-04-16T12:39:58.427Z,11.19
2023-04-16T12:44:09.095Z,11.24
2023-04-16T12:48:10.954Z,11.21
2023-04-16T12:52:12.596Z,11.24
2023-04-16T12:56:14.160Z,11.26
2023-04-16T13:00:16.352Z,11.30
2023-04-16T13:04:19.133Z,11.31
2023-04-16T13:08:20.928Z,11.38
2023-04-16T13:12:22.517Z,11.39
2023-04-16T13:16:24.292Z,11.41
2023-04-16T13:20:25.932Z,11.41
2023-04-16T13:24:27.552Z,11.38
2023-04-16T13:28:29.134Z,11.39
2023-04-16T13:32:31.173Z,11.41
2023-04-16T13:36:33.462Z,11.35
2023-04-16T13:40:35.054Z,11.30
2023-04-16T13:44:36.685Z,11.27
2023-04-16T13:48:38.558Z,11.26
2023-04-16T13:52:40.195Z,11.23
2023-04-16T13:56:41.751Z,11.26
2023-04-16T14:00:43.571Z,11.26
2023-04-16T14:04:46.056Z,11.23
2023-04-16T14:08:47.641Z,11.26
2023-04-16T14:12:49.363Z,11.28
2023-04-16T14:16:51.024Z,11.30
2023-04-16T14:20:52.583Z,11.28
2023-04-16T14:24:54.126Z,11.31
2023-04-16T14:28:55.728Z,11.28
2023-04-16T14:32:57.436Z,11.27
2023-04-16T14:36:59.045Z,11.28
2023-04-16T14:41:00.699Z,11.28
2023-04-16T14:45:03.327Z,11.30
2023-04-16T14:49:06.314Z,11.31
2023-04-16T14:53:07.951Z,11.31
2023-04-16T14:57:09.649Z,11.31
2023-04-16T15:01:13.577Z,11.35
2023-04-16T15:05:15.537Z,11.36
2023-04-16T15:09:17.096Z,11.35
2023-04-16T15:13:19.355Z,11.33
2023-04-16T15:17:21.441Z,11.35
2023-04-16T15:21:23.068Z,11.35
2023-04-16T15:25:25.501Z,11.33
2023-04-16T15:29:27.098Z,11.36
2023-04-16T15:33:28.768Z,11.41
2023-04-16T15:37:31.098Z,11.44
2023-04-16T15:41:36.276Z,11.44
2023-04-16T15:45:38.573Z,11.48
2023-04-16T15:49:40.313Z,11.49
2023-04-16T15:53:42.371Z,11.57
2023-04-16T15:57:44.174Z,11.59
2023-04-16T16:01:45.898Z,11.70
2023-04-16T16:05:48.295Z,11.75
2023-04-16T16:09:51.783Z,11.77
2023-04-16T16:13:53.399Z,11.77
2023-04-16T16:17:57.929Z,11.75
2023-04-16T16:21:59.610Z,11.77
2023-04-16T16:26:01.225Z,11.75
2023-04-16T16:30:04.723Z,11.75
2023-04-16T16:34:06.340Z,11.75
2023-04-16T16:38:08.134Z,11.75
2023-04-16T16:42:09.686Z,11.74
2023-04-16T16:46:11.507Z,11.75
2023-04-16T16:50:13.275Z,11.77
2023-04-16T16:54:14.896Z,11.75
2023-04-16T16:58:16.535Z,11.74
2023-04-16T17:02:19.059Z,11.72
2023-04-16T17:06:21.379Z,11.70
2023-04-16T17:10:23.118Z,11.69
2023-04-16T17:14:24.764Z,11.66
2023-04-16T17:18:26.412Z,11.64
2023-04-16T17:22:28.007Z,11.66
2023-04-16T17:26:29.508Z,11.66
2023-04-16T17:30:31.625Z,11.64
2023-04-16T17:34:33.260Z,11.64
2023-04-16T17:38:34.884Z,11.64
2023-04-16T17:42:36.999Z,11.62
2023-04-16T17:46:38.674Z,11.63
2023-04-16T17:50:40.391Z,11.60
2023-04-16T17:54:42.126Z,11.56
2023-04-16T17:58:43.721Z,11.56
2023-04-16T18:02:45.404Z,11.51
2023-04-16T18:06:47.189Z,11.49
2023-04-16T18:10:48.877Z,11.49
2023-04-16T18:14:50.758Z,11.46
2023-04-16T18:18:52.444Z,11.45
2023-04-16T18:22:54.114Z,11.45
2023-04-16T18:26:56.688Z,11.46
2023-04-16T18:31:02.846Z,11.44
2023-04-16T18:35:06.310Z,11.44
2023-04-16T18:39:08.171Z,11.42
2023-04-16T18:43:09.821Z,11.41
2023-04-16T18:47:11.418Z,11.41
2023-04-16T18:51:15.457Z,11.41
2023-04-16T18:55:18.077Z,11.38
2023-04-16T18:59:19.670Z,11.38
2023-04-16T19:03:21.488Z,11.35
2023-04-16T19:07:23.463Z,11.33
2023-04-16T19:11:25.332Z,11.30
2023-04-16T19:15:29.178Z,11.28
2023-04-16T19:19:32.275Z,11.26
2023-04-16T19:23:33.914Z,11.24
2023-04-16T19:27:36.263Z,11.23
2023-04-16T19:31:38.134Z,11.21
2023-04-16T19:35:43.602Z,11.21
2023-04-16T19:39:45.488Z,11.20
2023-04-16T19:43:47.277Z,11.20
2023-04-16T19:47:51.181Z,11.20
2023-04-16T19:51:53.488Z,11.17
2023-04-16T19:55:55.230Z,11.17
2023-04-16T19:59:57.038Z,11.16
2023-04-16T20:03:58.714Z,11.13
2023-04-16T20:08:00.808Z,11.13
2023-04-16T20:12:02.673Z,11.12
2023-04-16T20:16:05.649Z,11.11
2023-04-16T20:20:10.257Z,11.09
2023-04-16T20:24:11.879Z,11.08
2023-04-16T20:28:16.267Z,11.05
2023-04-16T20:32:17.920Z,11.02
2023-04-16T20:36:19.633Z,11.01
2023-04-16T20:40:21.332Z,10.99
2023-04-16T20:44:33.188Z,10.95
2023-04-16T20:48:34.933Z,10.94
2023-04-16T20:52:37.250Z,10.94
2023-04-16T20:56:38.909Z,10.98
2023-04-16T21:00:40.640Z,10.98
2023-04-16T21:04:42.352Z,10.99
2023-04-16T21:08:44.086Z,10.98
2023-04-16T21:12:45.773Z,10.95
2023-04-16T21:16:47.338Z,10.94
2023-04-16T21:20:48.917Z,10.91
2023-04-16T21:24:50.446Z,10.90
2023-04-16T21:28:53.297Z,10.87
2023-04-16T21:32:56.573Z,10.87
2023-04-16T21:36:58.113Z,10.86
2023-04-16T21:41:01.309Z,10.84
2023-04-16T21:45:03.204Z,10.84
2023-04-16T21:49:04.728Z,10.83
2023-04-16T21:53:06.591Z,10.84
2023-04-16T21:57:08.285Z,10.84
2023-04-16T22:01:11.088Z,10.84
2023-04-16T22:05:12.929Z,10.86
2023-04-16T22:09:15.416Z,10.83
2023-04-16T22:13:17.799Z,10.83
2023-04-16T22:17:20.671Z,10.81
2023-04-16T22:21:22.214Z,10.80
2023-04-16T22:25:24.039Z,10.76
2023-04-16T22:29:25.871Z,10.76
2023-04-16T22:33:31.017Z,10.73
2023-04-16T22:37:33.452Z,10.73
2023-04-16T22:41:38.056Z,10.70
2023-04-16T22:45:40.979Z,10.70
2023-04-16T22:49:42.683Z,10.72
2023-04-16T22:53:44.316Z,10.70
2023-04-16T22:57:45.946Z,10.68
2023-04-16T23:01:47.628Z,10.70
2023-04-16T23:05:49.223Z,10.69
2023-04-16T23:09:50.894Z,10.69
2023-04-16T23:13:52.462Z,10.66
2023-04-16T23:17:54.055Z,10.65
2023-04-16T23:21:55.641Z,10.65
2023-04-16T23:25:57.276Z,10.62
2023-04-16T23:29:58.896Z,10.62
2023-04-16T23:34:00.428Z,10.60
2023-04-16T23:38:02.136Z,10.60
2023-04-16T23:42:03.810Z,10.62
2023-04-16T23:46:05.556Z,10.62
2023-04-16T23:50:07.517Z,10.63
2023-04-16T23:54:09.084Z,10.62
2023-04-16T23:58:10.690Z,10.60
